Lahaina, HI (96761)

6:19 PM HST on May 23, 2017 (GMT -1000)
Kaanapali Golf Estates | | Change Station

Elev 256 ft 20.92 °N, 156.68 °W | Updated 2 seconds ago

Partly Cloudy
Partly Cloudy
75.3 °F
Feels Like 77 °F
N
5.0
Wind Variable Wind from NW

Today
High -- | Low -- °F
--% Chance of Precip.
Yesterday
High -- | Low -- °F
Precip. -- in
Pressure 30.01 in
Visibility 15.0 miles
Clouds Few 1200 ft
Scattered Clouds 2500 ft
Scattered Clouds 5000 ft
Heat Index 77 °F
Dew Point 64 °F
Humidity 69%
Rainfall 0.09 in
Snow Depth Not available.
5:46 AM 7:00 PM
Waning Crescent, 4% visible
METAR PHJH 240345Z 05015KT 15SM VCSH FEW012 SCT025 SCT050 25/19 A3001 RMK VCSH E LAST
Pressure 30.01 in
Visibility 15.0 miles
Clouds Few 1200 ft
Scattered Clouds 2500 ft
Scattered Clouds 5000 ft
Heat Index 77 °F
Dew Point 64 °F
Humidity 69%
Rainfall 0.09 in
Snow Depth Not available.
5:46 AM 7:00 PM
Waning Crescent, 4% visible
METAR PHJH 240345Z 05015KT 15SM VCSH FEW012 SCT025 SCT050 25/19 A3001 RMK VCSH E LAST

Get Severe Weather Alerts

Thanks for signing up!

Be on the lookout for a verification email in your inbox.

You'll start receiving the daily forecast at 6 AM.

×

10-Day Weather Forecast

Almanac

Astronomy

May. 23, 2017 Rise Set
Actual Time
Civil Twilight
Nautical Twilight
Astronomical Twilight
Moon
Length of Visible Light
Length of Day
Tomorrow will be .
, % of the Moon is Illuminated

Today's Extremes

State Highs State Lows

Community

WunderPhotos

Category 6

Welcome to Category 6. This is the collective home for Weather Underground's featured writeups by Dr. Jeff Masters (right), Bob Henson (left), Chris Burt, and other regular contributors.

Nearby

Air Quality

  Air Quality AQ Index Pollutant
Not available.

Snow Depth

Station Depth Elevation

Earthquake Activity

City Distance Mag. Time & Date
Minimum magnitude displayed is 2.5.

Coastal Water Temperatures

Place Temperature

Stations

Nearby Weather Stations

Station Location Temp. Windchill Dew Point Humidity Wind Precip. Elev Updated Type
                   

Watches & Warnings

There are currently no watches in effect.